Main page
METAR-TAF:

METAR-TAF

Airports :

Curaçao International Airport

Curaçao, Netherlands Antilles

latitude: 12-12N, longitude: 068-58W, elevation: 9 m

Current weather observation

The report was made 52 minutes ago, at 05:00 UTC
Wind 13 kt from the East/Southeast
Temperature 27°C
Humidity 79%
Pressure 1016 hPa
Visibility 10 km or more

METAR: TNCC 170500Z AUTO 11013KT 9999 NCD 27/23 Q1016 NOSIG

Time: 01:52 (05:52 UTC)

Forecast

The report was made 2 hours and 49 minutes ago, at 03:03 UTC
Forecast valid from 17 at 06 UTC to 18 at 06 UTC
Wind 12 kt from the East/Southeast
Visibility 10 km or more
Few clouds at a height of 1800 ft
Probability 30%
from 17 at 10 UTC to 17 at 18 UTC
Visibility: 7000 m
Broken clouds at a height of 1400 ft
light rain showers
Temporary
from 17 at 13 UTC to 17 at 20 UTC
Wind 15 kt from the East/Southeast with gusts up to 26 kt

TAF: TNCC 170303Z 1706/1806 11012KT 9999 FEW018 PROB30 1710/1718 7000 -SHRA BKN014 TEMPO 1713/1720 11015G26KT

Weather observations and forecasts of more than 4000 airports (METAR and TAF reports).

The available stations are represented by yellow and red dots on the map.

Hover mouse over dot to see the name of the station.

Then click to see weather observations and forecasts.

To change the map : click on the green buttons with a black cross to zoom in, on the green button with a dash to zoom out, or on the green arrows for adjacent maps.


METAR-TAF: